Time;durP1;ratioP1;P1;durP2;ratioP2;P2;SDS_P1;SDS_P2;PMS_P1;PMS_P2;Temp;Humidity;BMP_temperature;BMP_pressure;BME280_temperature;BME280_humidity;BME280_pressure;Samples;Min_cycle;Max_cycle;Signal;HPM_P1;HPM_P2
2021/09/27 00:00:18;;;;;;;44.03;26.38;;;20.60;99.90;;;;;;5001211;28;20057;-73
2021/09/27 00:02:45;;;;;;;58.15;30.70;;;20.60;99.90;;;;;;4999984;28;20164;-74
2021/09/27 00:05:16;;;;;;;49.38;27.73;;;20.50;99.90;;;;;;4996233;28;20157;-73
2021/09/27 00:07:43;;;;;;;47.88;27.38;;;20.50;99.90;;;;;;5000538;28;20470;-73
2021/09/27 00:10:14;;;;;;;50.42;28.65;;;20.30;99.90;;;;;;5001425;28;20058;-73
2021/09/27 00:12:41;;;;;;;45.20;27.23;;;20.30;99.90;;;;;;4999489;28;20057;-74
2021/09/27 00:15:12;;;;;;;40.28;24.70;;;20.20;99.90;;;;;;4999057;28;20061;-73
2021/09/27 00:17:39;;;;;;;42.65;25.85;;;20.10;99.90;;;;;;4998021;28;20056;-74
2021/09/27 00:20:08;;;;;;;50.22;26.42;;;20.10;99.90;;;;;;4999234;28;20108;-74
2021/09/27 00:22:37;;;;;;;47.53;26.33;;;20.00;99.90;;;;;;4997941;28;20049;-75
2021/09/27 00:25:06;;;;;;;43.47;24.35;;;20.00;99.90;;;;;;5000204;28;20050;-74
2021/09/27 00:27:33;;;;;;;44.20;25.80;;;20.20;99.90;;;;;;4998977;28;20452;-74
2021/09/27 00:30:00;;;;;;;49.80;28.10;;;20.30;99.90;;;;;;4999794;28;20113;-75
2021/09/27 00:32:27;;;;;;;51.20;28.08;;;20.40;99.90;;;;;;5002167;28;20057;-75
2021/09/27 00:34:54;;;;;;;51.97;28.00;;;20.30;99.90;;;;;;4998830;28;20050;-75
2021/09/27 00:37:21;;;;;;;55.22;29.92;;;20.10;99.90;;;;;;5000186;28;20570;-75
2021/09/27 00:39:50;;;;;;;48.03;29.35;;;20.10;99.90;;;;;;5000194;28;20113;-75
2021/09/27 00:42:17;;;;;;;57.67;30.75;;;20.00;99.90;;;;;;4998298;28;20104;-75
2021/09/27 00:44:44;;;;;;;48.70;27.88;;;20.00;99.90;;;;;;4999190;28;20520;-75
2021/09/27 00:47:11;;;;;;;55.03;29.20;;;19.90;99.90;;;;;;4999858;28;20049;-76
2021/09/27 00:49:38;;;;;;;54.60;28.95;;;19.90;99.90;;;;;;4999835;28;20081;-75
2021/09/27 00:52:06;;;;;;;54.47;29.83;;;19.80;99.90;;;;;;4998645;28;20078;-75
2021/09/27 00:54:35;;;;;;;54.45;31.30;;;19.80;99.90;;;;;;4999949;28;20139;-74
2021/09/27 00:57:11;;;;;;;50.28;28.88;;;19.80;99.90;;;;;;5000631;28;20127;-74
2021/09/27 00:59:41;;;;;;;56.65;31.85;;;19.80;99.90;;;;;;5000583;28;20490;-73
2021/09/27 01:02:10;;;;;;;56.88;31.90;;;19.90;99.90;;;;;;4998516;28;20685;-73
2021/09/27 01:04:38;;;;;;;50.83;30.52;;;19.90;99.90;;;;;;4998483;28;20049;-74
2021/09/27 01:07:21;;;;;;;57.45;32.28;;;19.80;99.90;;;;;;5000194;28;20499;-74
2021/09/27 01:10:11;;;;;;;58.08;30.58;;;19.80;99.90;;;;;;4999994;28;20089;-73
2021/09/27 01:13:07;;;;;;;55.72;30.70;;;19.70;99.90;;;;;;4999831;28;20510;-73
2021/09/27 01:15:44;;;;;;;58.88;31.92;;;19.60;99.90;;;;;;4999389;28;20140;-73
2021/09/27 01:18:33;;;;;;;53.22;29.25;;;19.70;99.90;;;;;;4997395;28;20081;-73
2021/09/27 01:21:16;;;;;;;66.70;32.17;;;19.80;99.90;;;;;;4999574;28;20085;-73
2021/09/27 01:24:22;;;;;;;57.30;29.30;;;19.90;99.90;;;;;;5000284;28;20051;-73
2021/09/27 01:27:12;;;;;;;59.10;30.48;;;19.90;99.90;;;;;;4999650;28;20085;-74
2021/09/27 01:30:23;;;;;;;65.07;32.03;;;19.80;99.90;;;;;;5001386;28;20077;-73
2021/09/27 01:32:53;;;;;;;58.47;31.85;;;19.70;99.90;;;;;;5000438;28;20057;-73
2021/09/27 01:35:34;;;;;;;59.60;32.72;;;19.70;99.90;;;;;;4997661;28;20445;-73
2021/09/27 01:38:13;;;;;;;64.45;33.28;;;19.70;99.90;;;;;;4999878;28;20136;-73
2021/09/27 01:40:49;;;;;;;61.75;32.45;;;19.70;99.90;;;;;;5003399;28;20152;-73
2021/09/27 01:43:21;;;;;;;69.22;34.83;;;19.80;99.90;;;;;;5001683;28;20405;-73
2021/09/27 01:45:55;;;;;;;70.82;34.88;;;19.80;99.90;;;;;;5002973;28;20071;-73
2021/09/27 01:48:29;;;;;;;64.45;33.42;;;19.80;99.90;;;;;;5004564;28;20077;-73
2021/09/27 01:50:59;;;;;;;59.95;32.63;;;19.80;99.90;;;;;;5002057;28;20081;-73
2021/09/27 01:53:31;;;;;;;62.58;33.15;;;19.70;99.90;;;;;;5003599;28;20477;-73
2021/09/27 01:56:05;;;;;;;65.65;33.83;;;19.70;99.90;;;;;;5003938;28;20469;-73
2021/09/27 01:58:43;;;;;;;73.70;35.20;;;19.70;99.90;;;;;;5004211;28;20088;-73
2021/09/27 02:01:19;;;;;;;70.68;36.15;;;19.70;99.90;;;;;;5002005;28;20085;-73
2021/09/27 02:03:54;;;;;;;66.20;32.92;;;19.80;99.90;;;;;;5005880;28;20053;-73
2021/09/27 02:06:28;;;;;;;75.20;36.22;;;19.70;99.90;;;;;;5003970;28;20116;-73
2021/09/27 02:09:03;;;;;;;74.65;36.80;;;19.70;99.90;;;;;;5003062;28;20085;-73
2021/09/27 02:11:32;;;;;;;73.07;35.30;;;19.70;99.90;;;;;;5000085;28;20089;-73
2021/09/27 02:14:12;;;;;;;86.35;37.30;;;19.70;99.90;;;;;;5001038;28;20712;-73
2021/09/27 02:16:44;;;;;;;79.97;36.30;;;19.60;99.90;;;;;;4999293;28;20128;-74
2021/09/27 02:19:20;;;;;;;71.82;35.03;;;19.70;99.90;;;;;;5001339;28;20122;-73
2021/09/27 02:21:52;;;;;;;80.13;37.33;;;19.60;99.90;;;;;;5002959;28;20056;-73
2021/09/27 02:24:28;;;;;;;80.70;37.17;;;19.50;99.90;;;;;;5001876;28;20078;-73
2021/09/27 02:26:55;;;;;;;75.85;36.22;;;19.50;99.90;;;;;;5000292;28;20080;-73
2021/09/27 02:29:23;;;;;;;77.82;36.75;;;19.50;99.90;;;;;;5001722;28;20136;-73
2021/09/27 02:32:00;;;;;;;74.75;34.92;;;19.50;99.90;;;;;;5002529;28;20092;-73
2021/09/27 02:34:36;;;;;;;72.53;34.33;;;19.50;99.90;;;;;;4998850;28;20120;-73
2021/09/27 02:37:10;;;;;;;87.90;38.45;;;19.40;99.90;;;;;;5000518;28;20157;-73
2021/09/27 02:39:42;;;;;;;77.60;35.13;;;19.50;99.90;;;;;;5002633;28;20049;-73
2021/09/27 02:42:15;;;;;;;77.25;36.90;;;19.50;99.90;;;;;;5001619;28;20065;-73
2021/09/27 02:44:44;;;;;;;73.50;34.50;;;19.50;99.90;;;;;;4999513;28;20085;-74
2021/09/27 02:47:16;;;;;;;63.60;33.95;;;19.50;99.90;;;;;;4998384;28;20053;-73
2021/09/27 02:49:45;;;;;;;71.10;35.20;;;19.40;99.90;;;;;;5003163;28;20053;-73
2021/09/27 02:52:14;;;;;;;66.07;33.42;;;19.40;99.90;;;;;;5002167;28;20083;-73
2021/09/27 02:54:43;;;;;;;64.00;32.63;;;19.30;99.90;;;;;;5000070;28;20085;-73
2021/09/27 02:57:25;;;;;;;70.85;35.92;;;19.40;99.90;;;;;;5002806;28;20053;-73
2021/09/27 03:00:04;;;;;;;74.35;36.58;;;19.60;99.90;;;;;;5002146;28;20133;-73
2021/09/27 03:02:44;;;;;;;69.60;36.65;;;20.30;99.90;;;;;;5004270;28;20081;-73
2021/09/27 03:05:21;;;;;;;59.80;33.28;;;20.20;99.90;;;;;;5000568;28;20050;-73
2021/09/27 03:08:06;;;;;;;59.92;32.65;;;20.10;99.90;;;;;;5000329;28;20152;-73
2021/09/27 03:10:41;;;;;;;59.83;32.53;;;20.00;99.90;;;;;;4998307;28;20050;-74
2021/09/27 03:13:14;;;;;;;69.05;33.92;;;19.90;99.90;;;;;;4999524;28;20050;-73
2021/09/27 03:16:13;;;;;;;69.88;35.58;;;19.90;99.90;;;;;;4999901;28;20379;-73
2021/09/27 03:18:52;;;;;;;67.13;35.15;;;19.80;99.90;;;;;;5001732;28;20117;-73
2021/09/27 03:21:31;;;;;;;64.80;33.70;;;19.80;99.90;;;;;;5000622;28;20156;-73
2021/09/27 03:24:09;;;;;;;70.43;34.50;;;19.70;99.90;;;;;;4999371;28;20156;-73
2021/09/27 03:26:47;;;;;;;64.97;34.58;;;19.60;99.90;;;;;;5002038;28;20048;-73
2021/09/27 03:29:22;;;;;;;81.70;37.78;;;19.50;99.90;;;;;;5000085;28;20053;-73
2021/09/27 03:31:59;;;;;;;79.22;35.20;;;19.40;99.90;;;;;;5001538;28;20080;-73
2021/09/27 03:34:37;;;;;;;89.53;38.17;;;19.40;99.90;;;;;;5001098;28;20054;-73
2021/09/27 03:37:29;;;;;;;80.03;37.72;;;19.40;99.90;;;;;;5000901;28;20471;-73
2021/09/27 03:40:09;;;;;;;68.47;35.40;;;19.40;99.90;;;;;;5000214;28;20058;-72
2021/09/27 03:42:44;;;;;;;68.43;34.17;;;19.60;99.90;;;;;;5000831;28;20101;-73
2021/09/27 03:45:14;;;;;;;66.55;33.53;;;19.60;99.90;;;;;;4999226;28;20064;-73
2021/09/27 03:47:51;;;;;;;64.53;35.05;;;19.60;99.90;;;;;;4999961;28;20053;-73
2021/09/27 03:50:25;;;;;;;72.25;33.63;;;19.50;99.90;;;;;;5000163;28;21179;-73
2021/09/27 03:52:59;;;;;;;67.57;33.95;;;19.50;99.90;;;;;;5001173;28;20081;-73
2021/09/27 03:55:36;;;;;;;75.53;35.83;;;19.80;99.90;;;;;;4999294;28;20050;-73
2021/09/27 03:58:07;;;;;;;74.20;35.97;;;19.80;99.90;;;;;;5001826;28;20470;-73
2021/09/27 04:00:39;;;;;;;88.80;38.15;;;19.60;99.90;;;;;;5000204;28;20084;-73
2021/09/27 04:03:13;;;;;;;79.60;35.72;;;19.60;99.90;;;;;;4999888;28;20580;-73
2021/09/27 04:05:49;;;;;;;80.57;36.72;;;19.60;99.90;;;;;;4999582;28;20046;-73
2021/09/27 04:08:28;;;;;;;74.10;35.22;;;19.50;99.90;;;;;;5000359;28;20060;-73
2021/09/27 04:11:12;;;;;;;78.13;37.70;;;19.60;99.90;;;;;;5000167;28;20108;-73
2021/09/27 04:13:43;;;;;;;80.82;37.20;;;19.50;99.90;;;;;;4999658;28;20049;-73
2021/09/27 04:16:30;;;;;;;73.50;35.83;;;19.50;99.90;;;;;;5000299;28;20057;-73
2021/09/27 04:19:06;;;;;;;74.38;35.00;;;19.50;99.90;;;;;;5000112;28;20054;-73
2021/09/27 04:21:44;;;;;;;77.60;38.13;;;19.50;99.90;;;;;;4999926;28;20572;-73
2021/09/27 04:24:28;;;;;;;72.03;35.78;;;19.50;99.90;;;;;;5000678;28;20072;-73
2021/09/27 04:27:10;;;;;;;79.93;36.42;;;19.50;99.90;;;;;;4998911;28;20049;-73
2021/09/27 04:30:02;;;;;;;81.30;37.60;;;19.40;99.90;;;;;;5000191;28;20143;-73
2021/09/27 04:32:39;;;;;;;88.60;39.72;;;19.40;99.90;;;;;;5000592;28;20418;-73
2021/09/27 04:35:15;;;;;;;73.38;36.90;;;19.40;99.90;;;;;;5002660;28;20084;-73
2021/09/27 04:37:44;;;;;;;82.30;37.90;;;19.40;99.90;;;;;;5002117;28;20097;-73
2021/09/27 04:40:14;;;;;;;81.18;38.60;;;19.30;99.90;;;;;;5001864;28;20089;-73
2021/09/27 04:42:58;;;;;;;88.38;39.78;;;19.30;99.90;;;;;;5002321;28;20053;-73
2021/09/27 04:45:46;;;;;;;85.15;39.47;;;19.30;99.90;;;;;;5001969;28;20089;-73
2021/09/27 04:48:27;;;;;;;72.53;36.67;;;19.20;99.90;;;;;;5003178;28;20046;-73
2021/09/27 04:51:04;;;;;;;69.53;37.47;;;19.10;99.90;;;;;;5002463;28;20049;-73
2021/09/27 04:53:49;;;;;;;76.95;37.58;;;19.10;99.90;;;;;;5003894;28;20095;-73
2021/09/27 04:56:31;;;;;;;80.72;38.50;;;19.00;99.90;;;;;;5001611;28;20050;-73
2021/09/27 04:59:12;;;;;;;87.45;41.22;;;18.90;99.90;;;;;;5000303;28;20466;-73
2021/09/27 05:02:08;;;;;;;88.03;41.80;;;18.80;99.90;;;;;;5003459;28;20505;-73
2021/09/27 05:04:48;;;;;;;106.43;42.63;;;18.70;99.90;;;;;;5003201;28;20136;-73
2021/09/27 05:07:49;;;;;;;122.47;44.22;;;18.70;99.90;;;;;;5000062;28;20140;-73
2021/09/27 05:10:47;;;;;;;91.85;41.50;;;18.60;99.90;;;;;;5002343;28;20089;-73
2021/09/27 05:13:46;;;;;;;81.15;38.88;;;18.50;99.90;;;;;;4971353;28;20085;-73
2021/09/27 05:16:24;;;;;;;80.63;37.67;;;18.50;99.90;;;;;;5004790;28;20049;-73
2021/09/27 05:19:15;;;;;;;93.65;42.58;;;18.40;99.90;;;;;;5006659;28;20055;-73
2021/09/27 05:22:07;;;;;;;92.50;40.88;;;18.40;99.90;;;;;;5006109;28;20053;-73
2021/09/27 05:25:01;;;;;;;89.88;40.70;;;18.50;99.90;;;;;;5004155;28;20226;-73
2021/09/27 05:27:48;;;;;;;92.15;40.58;;;18.40;99.90;;;;;;5003333;28;20073;-73
2021/09/27 05:30:29;;;;;;;87.68;40.22;;;18.30;99.90;;;;;;5002330;28;20734;-72
2021/09/27 05:33:03;;;;;;;92.65;40.15;;;18.30;99.90;;;;;;5007267;28;20128;-73
2021/09/27 05:35:53;;;;;;;94.65;41.42;;;18.20;99.90;;;;;;5002901;28;20049;-73
2021/09/27 05:38:26;;;;;;;76.07;38.08;;;18.20;99.90;;;;;;5003545;28;20046;-73
2021/09/27 05:41:06;;;;;;;92.22;41.83;;;18.10;99.90;;;;;;5007442;28;20109;-73
2021/09/27 05:43:54;;;;;;;88.28;41.15;;;18.10;99.90;;;;;;5005303;28;20049;-73
2021/09/27 05:46:42;;;;;;;96.18;42.92;;;18.10;99.90;;;;;;5000980;28;20092;-73
2021/09/27 05:49:14;;;;;;;120.10;45.83;;;18.00;99.90;;;;;;5004632;28;20172;-73
2021/09/27 05:51:47;;;;;;;103.55;45.88;;;18.00;99.90;;;;;;5004678;28;20049;-72
2021/09/27 05:54:23;;;;;;;105.53;44.17;;;18.00;99.90;;;;;;5002374;28;20058;-73
2021/09/27 05:57:01;;;;;;;109.70;45.35;;;17.90;99.90;;;;;;5002506;28;20105;-73
2021/09/27 05:59:36;;;;;;;109.60;45.53;;;18.00;99.90;;;;;;5002713;28;21313;-73
2021/09/27 06:02:15;;;;;;;109.75;44.90;;;17.90;99.90;;;;;;5003871;28;20050;-73
2021/09/27 06:04:53;;;;;;;115.38;45.78;;;17.90;99.90;;;;;;5004559;28;20592;-73
2021/09/27 06:07:28;;;;;;;129.23;45.90;;;17.90;99.90;;;;;;5002514;28;20091;-73
2021/09/27 06:10:03;;;;;;;157.70;49.97;;;17.90;99.90;;;;;;5003852;28;20050;-73
2021/09/27 06:12:38;;;;;;;203.90;53.78;;;17.80;99.90;;;;;;5005223;28;20050;-73
2021/09/27 06:15:09;;;;;;;167.57;53.00;;;17.80;99.90;;;;;;5003934;28;20119;-73
2021/09/27 06:17:56;;;;;;;114.47;46.47;;;18.20;99.90;;;;;;5004602;28;20085;-73
2021/09/27 06:20:34;;;;;;;117.43;46.05;;;18.50;99.90;;;;;;5004803;28;20557;-73
2021/09/27 06:23:19;;;;;;;124.45;48.05;;;18.70;99.90;;;;;;5003174;28;20085;-73
2021/09/27 06:25:53;;;;;;;104.28;47.13;;;18.80;99.90;;;;;;5003402;28;20053;-73
2021/09/27 06:28:32;;;;;;;105.93;46.20;;;18.90;99.90;;;;;;5001699;28;20058;-73
2021/09/27 06:31:05;;;;;;;100.88;43.75;;;19.00;99.90;;;;;;5003640;28;20064;-73
2021/09/27 06:33:38;;;;;;;108.53;44.67;;;19.00;99.90;;;;;;5004049;28;20080;-73
2021/09/27 06:36:08;;;;;;;99.90;43.38;;;19.00;99.90;;;;;;5004080;28;20108;-73
2021/09/27 06:38:37;;;;;;;117.35;46.50;;;19.10;99.90;;;;;;5004329;28;20525;-73
2021/09/27 06:41:06;;;;;;;96.90;43.40;;;19.20;99.90;;;;;;5001739;28;20091;-73
2021/09/27 06:43:33;;;;;;;84.63;41.35;;;19.30;99.90;;;;;;5005249;28;20128;-73
2021/09/27 06:46:00;;;;;;;81.65;39.53;;;19.30;99.90;;;;;;5004107;28;20103;-73
2021/09/27 06:48:27;;;;;;;79.88;40.80;;;19.20;99.90;;;;;;4999421;28;20081;-73
2021/09/27 06:50:57;;;;;;;93.80;43.17;;;19.20;99.90;;;;;;5004915;28;20520;-73
2021/09/27 06:53:25;;;;;;;85.30;40.28;;;19.30;99.90;;;;;;5002049;28;20054;-73
2021/09/27 06:55:53;;;;;;;64.18;34.33;;;19.40;99.90;;;;;;5003332;28;20057;-73
2021/09/27 06:58:23;;;;;;;64.65;35.42;;;19.10;99.90;;;;;;5001179;28;20442;-72
2021/09/27 07:00:50;;;;;;;67.40;36.42;;;19.00;99.90;;;;;;5003886;28;20084;-72
2021/09/27 07:03:17;;;;;;;69.50;36.83;;;19.00;99.90;;;;;;5003222;28;20132;-72
2021/09/27 07:05:44;;;;;;;68.40;34.85;;;19.10;99.90;;;;;;5002301;28;20166;-72
2021/09/27 07:08:12;;;;;;;63.70;35.80;;;19.20;99.90;;;;;;5001125;28;20134;-73
2021/09/27 07:10:40;;;;;;;72.30;36.92;;;19.20;99.90;;;;;;5001643;28;20475;-72
2021/09/27 07:13:07;;;;;;;80.60;39.92;;;19.20;99.90;;;;;;5002281;28;20095;-73
2021/09/27 07:15:34;;;;;;;67.45;37.45;;;19.20;99.90;;;;;;5002016;28;20053;-73
2021/09/27 07:18:01;;;;;;;63.90;35.92;;;19.30;99.90;;;;;;5002594;28;20089;-73
2021/09/27 07:20:28;;;;;;;69.10;36.95;;;19.20;99.90;;;;;;5005174;28;20053;-73
2021/09/27 07:22:57;;;;;;;57.05;32.25;;;19.10;99.90;;;;;;5001856;28;20512;-72
2021/09/27 07:25:27;;;;;;;62.05;34.50;;;19.00;99.90;;;;;;5002876;28;20084;-73
2021/09/27 07:27:54;;;;;;;63.95;35.60;;;18.90;99.90;;;;;;5002531;28;20394;-73
2021/09/27 07:30:22;;;;;;;66.10;36.28;;;18.80;99.90;;;;;;5006889;28;20101;-73
2021/09/27 07:32:50;;;;;;;76.50;37.30;;;18.80;99.90;;;;;;5004154;28;20487;-72
2021/09/27 07:35:21;;;;;;;71.70;37.45;;;19.00;99.90;;;;;;5002758;28;20057;-73
2021/09/27 07:37:48;;;;;;;68.18;35.53;;;19.10;99.90;;;;;;5001589;28;20069;-73
2021/09/27 07:40:18;;;;;;;62.85;34.85;;;19.20;99.90;;;;;;5003031;28;20053;-73
2021/09/27 07:42:46;;;;;;;59.65;33.42;;;19.10;99.90;;;;;;5003083;28;20558;-73
2021/09/27 07:45:16;;;;;;;61.17;32.63;;;19.00;99.90;;;;;;5002669;28;20510;-73
2021/09/27 07:47:43;;;;;;;57.70;33.40;;;19.10;99.90;;;;;;5002907;28;20095;-73
2021/09/27 07:50:11;;;;;;;52.30;30.70;;;18.90;99.90;;;;;;5001340;28;20495;-72
2021/09/27 07:52:39;;;;;;;58.65;31.67;;;18.90;99.90;;;;;;5005317;28;20072;-72
2021/09/27 07:55:07;;;;;;;51.17;31.70;;;18.90;99.90;;;;;;5002405;28;20054;-73
2021/09/27 07:57:34;;;;;;;50.63;31.33;;;19.00;99.90;;;;;;5000328;28;20088;-73
2021/09/27 08:00:02;;;;;;;49.92;30.98;;;19.10;99.90;;;;;;5001548;28;20084;-73
2021/09/27 08:02:30;;;;;;;51.95;30.58;;;19.50;99.90;;;;;;5001413;28;20085;-72
2021/09/27 08:04:58;;;;;;;49.65;30.48;;;19.20;99.90;;;;;;5002603;28;20526;-73
2021/09/27 08:07:25;;;;;;;43.72;27.60;;;19.20;99.90;;;;;;5003613;28;20060;-73
2021/09/27 08:09:52;;;;;;;44.17;27.90;;;18.90;99.90;;;;;;5002186;28;20111;-73
2021/09/27 08:12:19;;;;;;;40.58;26.70;;;18.60;99.90;;;;;;5001892;28;20053;-72
2021/09/27 08:14:46;;;;;;;40.78;25.58;;;18.50;99.90;;;;;;5003084;28;20340;-73
2021/09/27 08:17:15;;;;;;;44.42;27.63;;;18.50;99.90;;;;;;5001598;28;20149;-72
2021/09/27 08:19:43;;;;;;;40.90;26.73;;;18.50;99.90;;;;;;5002585;28;20074;-72
2021/09/27 08:22:10;;;;;;;47.53;28.05;;;18.40;99.90;;;;;;5003114;28;20058;-72
2021/09/27 08:24:37;;;;;;;46.08;27.73;;;18.30;99.90;;;;;;5001076;28;20798;-73
2021/09/27 08:27:05;;;;;;;44.40;28.10;;;18.20;99.90;;;;;;5001922;28;20081;-73
2021/09/27 08:29:32;;;;;;;42.35;26.25;;;18.30;99.90;;;;;;5000045;28;20168;-72
2021/09/27 08:31:59;;;;;;;40.85;26.92;;;18.30;99.90;;;;;;5003888;28;20506;-72
2021/09/27 08:34:27;;;;;;;39.17;26.27;;;18.30;99.90;;;;;;5000635;28;20518;-72
2021/09/27 08:36:55;;;;;;;41.80;26.58;;;18.30;99.90;;;;;;5001410;28;20243;-72
2021/09/27 08:39:22;;;;;;;40.38;25.30;;;18.40;99.90;;;;;;5000911;28;20156;-72
2021/09/27 08:41:53;;;;;;;39.33;24.23;;;18.40;99.90;;;;;;5001245;28;20058;-72
2021/09/27 08:44:42;;;;;;;45.42;29.80;;;18.40;99.90;;;;;;5000676;28;20206;-72
2021/09/27 08:47:15;;;;;;;40.75;26.08;;;18.30;99.90;;;;;;4998492;28;20066;-72
2021/09/27 08:49:52;;;;;;;44.13;26.48;;;18.50;99.90;;;;;;5001727;28;20089;-72
2021/09/27 08:52:20;;;;;;;;;;;18.50;99.90;;;;;;5007036;28;20605;-71
2021/09/27 08:54:51;;;;;;;36.92;23.85;;;18.60;99.90;;;;;;5005367;28;20003;-71
2021/09/27 08:57:39;;;;;;;35.13;23.15;;;18.60;99.90;;;;;;5005890;28;20054;-72
2021/09/27 09:00:17;;;;;;;32.85;23.40;;;18.70;99.90;;;;;;5006386;28;20139;-72
2021/09/27 09:02:53;;;;;;;34.03;23.02;;;19.20;99.90;;;;;;5007509;28;20046;-72
2021/09/27 09:05:24;;;;;;;;;;;19.10;99.90;;;;;;5006886;28;20045;-72
2021/09/27 09:07:58;;;;;;;37.05;23.73;;;18.90;99.90;;;;;;5006932;28;19961;-72
2021/09/27 09:10:38;;;;;;;28.13;19.15;;;18.90;99.90;;;;;;5008230;28;20057;-72
2021/09/27 09:13:08;;;;;;;25.83;19.23;;;18.80;99.90;;;;;;5005625;28;20054;-72
2021/09/27 09:15:36;;;;;;;28.92;19.95;;;18.70;99.90;;;;;;5007448;28;20634;-73
2021/09/27 09:18:10;;;;;;;29.73;20.73;;;18.90;99.90;;;;;;5005248;28;20092;-73
2021/09/27 09:20:48;;;;;;;27.08;19.95;;;19.40;99.90;;;;;;5006609;28;20045;-73
2021/09/27 09:23:21;;;;;;;30.10;21.95;;;19.50;99.90;;;;;;5004323;28;20085;-73
2021/09/27 09:25:49;;;;;;;28.27;21.27;;;19.40;99.90;;;;;;5005390;28;20053;-73
2021/09/27 09:28:17;;;;;;;28.90;19.23;;;21.40;99.90;;;;;;5004217;28;20049;-75
2021/09/27 09:30:50;;;;;;;26.95;19.85;;;21.50;99.90;;;;;;5004185;28;20105;-74
2021/09/27 09:33:42;;;;;;;29.60;20.75;;;21.10;99.90;;;;;;5005089;28;20081;-74
2021/09/27 09:36:14;;;;;;;26.95;20.33;;;20.70;99.90;;;;;;5003321;28;20053;-75
2021/09/27 09:38:43;;;;;;;24.13;19.38;;;20.80;99.90;;;;;;5005951;28;20073;-75
2021/09/27 09:41:10;;;;;;;26.90;20.25;;;19.70;99.90;;;;;;5004944;28;20117;-74
2021/09/27 09:43:40;;;;;;;25.88;19.67;;;19.30;99.90;;;;;;5006066;28;20466;-74
2021/09/27 09:46:11;;;;;;;27.08;21.23;;;19.40;99.90;;;;;;5004278;28;20088;-74
2021/09/27 09:48:41;;;;;;;28.20;20.33;;;19.20;99.90;;;;;;5006993;28;20600;-74
2021/09/27 09:51:24;;;;;;;27.13;19.13;;;19.30;99.90;;;;;;5001165;28;20518;-74
2021/09/27 09:54:16;;;;;;;27.45;20.35;;;19.30;99.90;;;;;;5003744;28;20103;-74
2021/09/27 09:56:48;;;;;;;27.80;19.88;;;20.10;99.90;;;;;;5001154;28;20588;-74
2021/09/27 09:59:21;;;;;;;23.63;17.25;;;21.10;99.90;;;;;;5004233;28;20089;-73
2021/09/27 10:01:52;;;;;;;22.67;16.42;;;20.90;99.90;;;;;;4997782;28;20053;-71
2021/09/27 10:04:23;;;;;;;20.17;16.88;;;22.50;99.90;;;;;;4998615;28;20104;-71
2021/09/27 10:07:00;;;;;;;22.48;17.45;;;22.90;99.90;;;;;;4995205;28;20454;-71
2021/09/27 10:09:30;;;;;;;24.75;17.35;;;22.00;99.90;;;;;;4997357;28;20046;-71
2021/09/27 10:12:00;;;;;;;23.40;18.45;;;21.40;99.90;;;;;;4999741;28;20124;-71
2021/09/27 10:14:37;;;;;;;24.70;18.33;;;21.40;99.90;;;;;;4998938;28;20097;-71
2021/09/27 10:17:27;;;;;;;23.73;18.17;;;21.00;99.90;;;;;;5001977;28;20086;-71
2021/09/27 10:19:58;;;;;;;26.48;17.67;;;20.70;99.90;;;;;;4996699;28;20067;-71
2021/09/27 10:22:29;;;;;;;25.55;18.50;;;20.60;99.90;;;;;;4993422;28;20110;-70
2021/09/27 10:24:58;;;;;;;24.92;16.98;;;20.40;99.90;;;;;;4997791;28;20097;-71
2021/09/27 10:27:31;;;;;;;21.25;16.63;;;21.30;99.90;;;;;;5003597;28;20089;-71
2021/09/27 10:30:00;;;;;;;21.85;16.30;;;23.40;99.90;;;;;;5001420;28;20056;-71
2021/09/27 10:32:33;;;;;;;20.20;15.20;;;24.60;99.90;;;;;;5001508;28;20459;-71
2021/09/27 10:35:08;;;;;;;18.55;15.18;;;26.60;99.90;;;;;;4998590;28;20054;-71
2021/09/27 10:37:38;;;;;;;16.00;13.18;;;28.10;99.90;;;;;;4999396;28;20050;-71
2021/09/27 10:40:12;;;;;;;21.10;15.30;;;25.20;99.90;;;;;;4996771;28;20092;-71
2021/09/27 10:42:44;;;;;;;16.85;13.10;;;25.10;99.90;;;;;;4993633;28;20129;-71
2021/09/27 10:45:14;;;;;;;18.15;13.93;;;25.60;99.90;;;;;;4999993;28;20151;-71
2021/09/27 10:47:45;;;;;;;14.93;11.40;;;25.00;99.90;;;;;;5003985;28;20108;-71
2021/09/27 10:50:16;;;;;;;14.30;10.45;;;27.10;99.90;;;;;;5004710;28;20141;-71
2021/09/27 10:52:55;;;;;;;12.07;9.38;;;26.40;99.90;;;;;;5002359;28;20259;-71
2021/09/27 10:55:27;;;;;;;12.20;8.75;;;27.10;99.90;;;;;;5003291;28;20514;-71
2021/09/27 10:57:58;;;;;;;11.05;8.63;;;29.00;99.90;;;;;;5003097;28;20060;-71
2021/09/27 11:00:40;;;;;;;16.83;9.98;;;26.80;99.90;;;;;;5003980;28;20108;-71
2021/09/27 11:03:14;;;;;;;12.73;8.88;;;24.70;99.90;;;;;;5001204;28;20136;-72
2021/09/27 11:05:54;;;;;;;11.63;8.02;;;26.50;99.90;;;;;;5002342;28;20095;-71
2021/09/27 11:08:41;;;;;;;12.25;7.40;;;29.30;99.90;;;;;;5003350;28;20057;-71
2021/09/27 11:11:15;;;;;;;;;;;27.50;99.90;;;;;;5002929;28;20057;-71
2021/09/27 11:13:44;;;;;;;14.13;8.50;;;27.40;99.90;;;;;;4993866;28;20150;-72
2021/09/27 11:16:16;;;;;;;11.57;8.32;;;26.90;99.90;;;;;;4998499;28;20131;-71
2021/09/27 11:18:54;;;;;;;10.02;7.60;;;26.80;99.90;;;;;;4999808;28;20269;-71
2021/09/27 11:21:40;;;;;;;10.05;8.13;;;26.40;99.90;;;;;;4997746;28;20129;-72
2021/09/27 11:27:13;;;;;;;11.03;7.90;;;28.10;99.90;;;;;;5106659;27;20456;-71
2021/09/27 11:29:49;;;;;;;11.88;8.48;;;31.40;99.90;;;;;;5072783;28;20109;-71
2021/09/27 11:32:25;;;;;;;;;;;28.70;99.90;;;;;;5075580;28;20080;-71
2021/09/27 11:34:59;;;;;;;14.60;8.52;;;26.30;99.90;;;;;;5075219;28;20458;-76
2021/09/27 11:37:30;;;;;;;11.45;8.88;;;29.10;99.90;;;;;;5074477;28;20056;-71
2021/09/27 11:40:30;;;;;;;12.60;9.32;;;26.30;99.90;;;;;;5072843;28;20075;-72
2021/09/27 11:43:23;;;;;;;12.10;8.70;;;24.30;99.90;;;;;;5073392;28;20091;-70
2021/09/27 11:45:55;;;;;;;11.38;6.75;;;24.40;99.90;;;;;;5072014;28;20052;-70
2021/09/27 11:48:44;;;;;;;9.90;7.18;;;26.70;99.90;;;;;;5074576;28;20064;-70
2021/09/27 11:51:30;;;;;;;10.07;6.22;;;26.30;99.90;;;;;;5072399;28;20061;-69
2021/09/27 11:54:20;;;;;;;14.63;8.53;;;25.50;99.90;;;;;;5070330;28;20135;-70
2021/09/27 11:56:56;;;;;;;11.27;7.18;;;24.60;99.90;;;;;;5073083;28;20396;-70
2021/09/27 11:59:31;;;;;;;10.87;7.37;;;23.40;99.90;;;;;;5073120;28;20091;-70
2021/09/27 12:02:10;;;;;;;12.95;7.70;;;22.60;99.90;;;;;;5075978;28;20109;-70
2021/09/27 12:05:13;;;;;;;16.50;9.05;;;22.30;99.90;;;;;;5074808;28;20052;-70
2021/09/27 12:07:44;;;;;;;12.32;8.60;;;21.90;99.90;;;;;;5074598;28;20079;-70
2021/09/27 12:10:17;;;;;;;13.55;8.45;;;21.90;99.90;;;;;;5076761;28;20083;-70
2021/09/27 12:12:46;;;;;;;10.93;7.85;;;22.00;99.90;;;;;;5074562;28;20484;-70
2021/09/27 12:15:21;;;;;;;13.15;8.65;;;23.10;99.90;;;;;;5072882;28;20109;-70
2021/09/27 12:17:47;;;;;;;13.48;8.48;;;22.40;99.90;;;;;;5074404;28;20142;-70
2021/09/27 12:20:19;;;;;;;13.07;8.35;;;22.20;99.90;;;;;;5073697;28;20107;-70
2021/09/27 12:22:51;;;;;;;14.75;8.57;;;22.20;99.90;;;;;;5074087;28;20080;-70
2021/09/27 12:25:21;;;;;;;12.13;7.72;;;22.50;99.90;;;;;;5072409;28;20139;-70
2021/09/27 12:27:53;;;;;;;13.00;8.30;;;22.70;99.90;;;;;;5077296;28;20084;-70
2021/09/27 12:30:25;;;;;;;10.45;7.38;;;23.20;99.90;;;;;;5075600;28;20083;-70
2021/09/27 12:32:57;;;;;;;12.50;6.80;;;23.80;99.90;;;;;;5074519;28;20097;-70
2021/09/27 12:35:30;;;;;;;8.52;5.53;;;25.10;99.90;;;;;;5074199;28;20048;-70
2021/09/27 12:37:58;;;;;;;9.27;5.90;;;25.70;99.90;;;;;;5060706;28;20161;-70
2021/09/27 12:40:34;;;;;;;9.38;5.63;;;26.00;99.90;;;;;;5060380;28;20235;-70
2021/09/27 12:43:08;;;;;;;8.00;5.60;;;25.70;99.90;;;;;;5061912;28;20320;-70
2021/09/27 12:45:40;;;;;;;8.95;4.85;;;27.00;99.90;;;;;;5059872;28;20131;-71
2021/09/27 12:48:12;;;;;;;6.93;4.10;;;28.30;99.90;;;;;;5062091;28;20073;-71
2021/09/27 12:50:44;;;;;;;5.10;3.78;;;26.60;99.90;;;;;;5060953;28;20517;-71
2021/09/27 12:53:15;;;;;;;7.72;4.35;;;25.50;99.90;;;;;;5059058;28;20470;-71
2021/09/27 12:55:45;;;;;;;8.82;4.85;;;25.80;99.90;;;;;;5061114;28;20588;-69
2021/09/27 12:58:23;;;;;;;8.80;4.18;;;25.60;99.90;;;;;;5060159;28;20605;-69
2021/09/27 13:00:53;;;;;;;8.18;4.82;;;25.10;99.90;;;;;;5062040;28;20142;-69
2021/09/27 13:03:24;;;;;;;5.50;3.80;;;26.20;99.90;;;;;;5061481;28;20136;-69
2021/09/27 13:06:06;;;;;;;9.38;5.70;;;27.00;99.90;;;;;;5061052;28;20487;-69
2021/09/27 13:08:45;;;;;;;7.60;5.20;;;27.70;99.90;;;;;;5059459;28;20632;-69
2021/09/27 13:11:26;;;;;;;9.40;5.45;;;28.50;99.90;;;;;;5060950;28;20751;-69